createdAt,value
2023-04-25T00:04:35.013Z,10.09
2023-04-25T00:10:06.700Z,10.02
2023-04-25T00:15:38.460Z,10.4
2023-04-25T00:21:14.510Z,10.54
2023-04-25T00:26:46.259Z,10.37
2023-04-25T00:32:17.764Z,9.97
2023-04-25T00:37:49.650Z,10.02
2023-04-25T00:43:21.406Z,10.31
2023-04-25T00:48:52.958Z,10.33
2023-04-25T00:54:24.894Z,10.16
2023-04-25T00:59:56.409Z,10.08
2023-04-25T01:05:28.461Z,10.17
2023-04-25T01:10:59.974Z,10.4
2023-04-25T01:16:31.609Z,10.39
2023-04-25T01:22:09.791Z,10.21
2023-04-25T01:27:41.578Z,10.17
2023-04-25T01:33:13.169Z,10.12
2023-04-25T01:38:45.009Z,10.22
2023-04-25T01:44:16.685Z,9.93
2023-04-25T01:49:48.305Z,9.72
2023-04-25T01:55:20.132Z,9.48
2023-04-25T02:00:51.882Z,9.48
2023-04-25T02:06:23.635Z,9.44
2023-04-25T02:11:55.370Z,9.38
2023-04-25T02:17:26.874Z,9.85
2023-04-25T02:23:03.476Z,9.59
2023-04-25T02:28:34.860Z,9.24
2023-04-25T02:34:06.469Z,9.3
2023-04-25T02:39:38.189Z,9.36
2023-04-25T02:45:09.925Z,9.67
2023-04-25T02:50:41.894Z,9.94
2023-04-25T02:56:13.346Z,9.88
2023-04-25T03:01:45.073Z,9.93
2023-04-25T03:07:17.009Z,9.88
2023-04-25T03:12:48.529Z,10.04
2023-04-25T03:18:21.202Z,9.91
2023-04-25T03:23:56.411Z,9.97
2023-04-25T03:29:28.131Z,9.81
2023-04-25T03:34:59.975Z,9.58
2023-04-25T03:40:31.546Z,9.44
2023-04-25T03:46:03.294Z,9.28
2023-04-25T03:51:35.414Z,9.1
2023-04-25T03:57:06.828Z,9.01
2023-04-25T04:02:38.777Z,9.08
2023-04-25T04:08:10.328Z,9.06
2023-04-25T04:13:41.843Z,9.24
2023-04-25T04:19:13.609Z,9.26
2023-04-25T04:24:49.863Z,9.13
2023-04-25T04:30:21.453Z,9.36
2023-04-25T04:35:53.411Z,9.08
2023-04-25T04:41:24.938Z,9.06
2023-04-25T04:46:56.848Z,9.23
2023-04-25T04:52:28.355Z,9.23
2023-04-25T04:58:00.125Z,9.17
2023-04-25T05:03:32.262Z,9.24
2023-04-25T05:09:03.713Z,9.49
2023-04-25T05:14:35.246Z,9.48
2023-04-25T05:20:06.938Z,9.45
2023-04-25T05:25:45.097Z,9.35
2023-04-25T05:31:16.799Z,8.97
2023-04-25T05:36:49.198Z,9.11
2023-04-25T05:42:20.478Z,9.06
2023-04-25T05:47:52.066Z,9.22
2023-04-25T05:53:23.926Z,9.36
2023-04-25T05:58:55.576Z,9.39
2023-04-25T06:04:27.369Z,9.28
2023-04-25T06:09:59.291Z,9.2
2023-04-25T06:15:30.649Z,9.32
2023-04-25T06:21:02.478Z,9.57
2023-04-25T06:26:40.461Z,9.53
2023-04-25T06:32:12.428Z,9.72
2023-04-25T06:37:43.907Z,9.69
2023-04-25T06:43:15.645Z,9.87
2023-04-25T06:48:47.349Z,9.88
2023-04-25T06:54:19.117Z,9.77
2023-04-25T06:59:50.992Z,9.69
2023-04-25T07:05:22.729Z,9.99
2023-04-25T07:10:54.244Z,10.18
2023-04-25T07:16:26.146Z,9.99
2023-04-25T07:21:57.778Z,10.01
2023-04-25T07:27:33.785Z,9.82
2023-04-25T07:33:05.777Z,9.86
2023-04-25T07:38:37.363Z,10.09
2023-04-25T07:44:09.150Z,10.11
2023-04-25T07:49:40.951Z,9.69
2023-04-25T07:55:13.104Z,9.71
2023-04-25T08:00:44.450Z,9.83
2023-04-25T08:06:16.390Z,9.59
2023-04-25T08:11:47.559Z,9.59
2023-04-25T08:17:19.455Z,9.28
2023-04-25T08:22:51.013Z,9.34
2023-04-25T08:28:27.135Z,9.35
2023-04-25T08:33:59.208Z,9.14
2023-04-25T08:39:30.751Z,9.12
2023-04-25T08:45:04.329Z,9.33
2023-04-25T08:50:34.007Z,9.42
2023-04-25T08:56:05.879Z,9.52
2023-04-25T09:01:37.525Z,9.47
2023-04-25T09:07:09.514Z,9.61
2023-04-25T09:12:41.063Z,9.69
2023-04-25T09:18:12.825Z,9.52
2023-04-25T09:23:44.445Z,9.53
2023-04-25T09:29:22.440Z,9.81
2023-04-25T09:34:54.412Z,9.44
2023-04-25T09:40:25.906Z,9.59
2023-04-25T09:45:58.975Z,9.73
2023-04-25T09:51:29.328Z,9.43
2023-04-25T09:57:01.032Z,8.93
2023-04-25T10:02:32.996Z,9.06
2023-04-25T10:08:04.583Z,8.32
2023-04-25T10:13:36.216Z,8.5
2023-04-25T10:19:08.163Z,8.78
2023-04-25T10:24:39.683Z,7.89
2023-04-25T10:30:15.912Z,7.78
2023-04-25T10:35:47.538Z,7.69
2023-04-25T10:41:19.245Z,7.76
2023-04-25T10:46:51.353Z,7.88
2023-04-25T10:52:22.660Z,8.13
2023-04-25T10:57:54.487Z,8.24
2023-04-25T11:03:26.515Z,7.98
2023-04-25T11:08:58.137Z,7.83
2023-04-25T11:14:30.068Z,7.99
2023-04-25T11:20:01.284Z,8.13
2023-04-25T11:25:33.684Z,8.1
2023-04-25T11:31:09.153Z,8.14
2023-04-25T11:36:41.153Z,8.32
2023-04-25T11:42:13.738Z,8.23
2023-04-25T11:47:45.092Z,8.25
2023-04-25T11:53:16.276Z,8.5
2023-04-25T11:58:47.764Z,8.57
2023-04-25T12:04:19.735Z,8.43
2023-04-25T12:09:51.249Z,8.49
2023-04-25T12:15:23.196Z,8.33
2023-04-25T12:20:55.192Z,8.42
2023-04-25T12:26:26.344Z,8.72
2023-04-25T12:32:04.497Z,9.1
2023-04-25T12:37:36.387Z,9.12
2023-04-25T12:43:07.958Z,9.64
2023-04-25T12:48:39.639Z,10.03
2023-04-25T12:54:11.599Z,9.71
2023-04-25T12:59:43.403Z,9.51
2023-04-25T13:05:14.835Z,9.74
2023-04-25T13:10:46.950Z,9.8
2023-04-25T13:16:18.657Z,9.89
2023-04-25T13:21:50.280Z,9.81
2023-04-25T13:27:21.798Z,9.64
2023-04-25T13:32:59.876Z,9.68
2023-04-25T13:38:31.645Z,9.77
2023-04-25T13:44:03.323Z,9.86
2023-04-25T13:49:35.120Z,9.78
2023-04-25T13:55:06.713Z,9.77
2023-04-25T14:00:38.629Z,10.09
2023-04-25T14:06:10.167Z,10.02
2023-04-25T14:11:42.050Z,10.63
2023-04-25T14:17:13.770Z,10.7
2023-04-25T14:22:45.643Z,10.58
2023-04-25T14:28:17.080Z,10.41
2023-04-25T14:33:53.637Z,10.54
2023-04-25T14:39:25.125Z,10.69
2023-04-25T14:44:56.693Z,10.97
2023-04-25T14:50:28.567Z,10.56
2023-04-25T14:56:00.430Z,10.83
2023-04-25T15:01:31.896Z,11.03
2023-04-25T15:07:03.600Z,10.92
2023-04-25T15:12:35.479Z,11.16
2023-04-25T15:18:07.230Z,11.37
2023-04-25T15:23:38.750Z,11.28
2023-04-25T15:29:10.667Z,11.32
2023-04-25T15:34:48.770Z,10.99
2023-04-25T15:40:20.469Z,10.94
2023-04-25T15:45:52.339Z,11.18
2023-04-25T15:51:23.730Z,11.24
2023-04-25T15:56:55.723Z,11.28
2023-04-25T16:02:27.514Z,11.18
2023-04-25T16:07:58.923Z,11.01
2023-04-25T16:13:30.821Z,11.16
2023-04-25T16:19:02.423Z,10.98
2023-04-25T16:24:34.101Z,11.14
2023-04-25T16:30:05.844Z,10.92
2023-04-25T16:35:43.962Z,11.0
2023-04-25T16:41:15.651Z,10.78
2023-04-25T16:46:47.389Z,10.86
2023-04-25T16:52:19.148Z,10.69
2023-04-25T16:57:50.811Z,10.6
2023-04-25T17:03:22.664Z,10.58
2023-04-25T17:08:54.638Z,10.39
2023-04-25T17:14:25.996Z,10.47
2023-04-25T17:19:57.727Z,10.57
2023-04-25T17:25:29.442Z,10.18
2023-04-25T17:31:01.545Z,9.72
2023-04-25T17:36:39.311Z,9.19
2023-04-25T17:42:11.023Z,8.96
2023-04-25T17:47:42.768Z,8.91
2023-04-25T17:53:14.536Z,8.54
2023-04-25T17:58:46.190Z,8.69
2023-04-25T18:04:18.046Z,8.75
2023-04-25T18:09:49.661Z,9.15
2023-04-25T18:15:21.476Z,9.12
2023-04-25T18:20:53.187Z,9.14
2023-04-25T18:26:24.824Z,9.12
2023-04-25T18:31:56.616Z,9.65
2023-04-25T18:37:32.793Z,9.81
2023-04-25T18:43:04.519Z,9.79
2023-04-25T18:48:36.245Z,9.96
2023-04-25T18:54:08.056Z,9.92
2023-04-25T18:59:39.625Z,9.88
2023-04-25T19:05:11.644Z,9.81
2023-04-25T19:10:43.160Z,9.81
2023-04-25T19:16:14.782Z,9.7
2023-04-25T19:21:46.464Z,9.76
2023-04-25T19:27:18.301Z,9.86
2023-04-25T19:32:50.032Z,9.97
2023-04-25T19:38:26.706Z,9.95
2023-04-25T19:43:57.743Z,9.91
2023-04-25T19:49:29.468Z,9.72
2023-04-25T19:55:01.361Z,9.64
2023-04-25T20:00:32.944Z,9.75
2023-04-25T20:06:04.666Z,9.84
2023-04-25T20:11:36.616Z,9.74
2023-04-25T20:17:08.101Z,9.7
2023-04-25T20:22:40.385Z,9.75
2023-04-25T20:28:11.688Z,9.65
2023-04-25T20:33:43.372Z,9.67
2023-04-25T20:39:21.500Z,9.61
2023-04-25T20:44:53.177Z,9.57
2023-04-25T20:50:24.915Z,9.67
2023-04-25T20:55:56.933Z,9.62
2023-04-25T21:01:28.566Z,9.68
2023-04-25T21:07:00.152Z,9.75
2023-04-25T21:12:32.512Z,9.72
2023-04-25T21:18:03.559Z,9.69
2023-04-25T21:23:35.261Z,9.69
2023-04-25T21:29:07.023Z,9.58
2023-04-25T21:34:38.864Z,9.59
2023-04-25T21:40:14.822Z,9.6
2023-04-25T21:46:06.283Z,9.59
2023-04-25T21:51:18.412Z,9.54
2023-04-25T21:56:50.178Z,9.48
2023-04-25T22:02:21.908Z,9.53
2023-04-25T22:07:53.686Z,9.49
2023-04-25T22:13:25.146Z,9.47
2023-04-25T22:18:56.842Z,9.51
2023-04-25T22:24:28.641Z,9.52
2023-04-25T22:30:00.619Z,9.38
2023-04-25T22:35:32.015Z,9.4
2023-04-25T22:41:10.405Z,9.43
2023-04-25T22:46:41.862Z,9.4
2023-04-25T22:52:13.608Z,9.37
2023-04-25T22:57:45.777Z,9.39
2023-04-25T23:03:17.698Z,9.27
2023-04-25T23:08:49.358Z,9.35
2023-04-25T23:14:20.691Z,9.22
2023-04-25T23:19:52.431Z,9.23
2023-04-25T23:25:24.142Z,9.15
2023-04-25T23:30:55.744Z,9.19
2023-04-25T23:36:27.502Z,9.14
2023-04-25T23:42:03.744Z,9.02
2023-04-25T23:47:35.602Z,8.83
2023-04-25T23:53:07.064Z,8.87
2023-04-25T23:58:38.960Z,8.89
